sensor_id;sensor_type;location;lat;lon;timestamp;pressure;altitude;pressure_sealevel;temperature;humidity
13581;BME280;6861;46.170;7.222;2023-04-19T00:01:07;96137.88;;;13.14;44.34
13581;BME280;6861;46.170;7.222;2023-04-19T00:03:35;96126.84;;;13.12;44.53
13581;BME280;6861;46.170;7.222;2023-04-19T00:06:05;96134.97;;;13.21;44.68
13581;BME280;6861;46.170;7.222;2023-04-19T00:08:35;96127.91;;;13.16;44.84
13581;BME280;6861;46.170;7.222;2023-04-19T00:11:04;96135.53;;;13.12;45.35
13581;BME280;6861;46.170;7.222;2023-04-19T00:13:32;96139.25;;;13.06;44.87
13581;BME280;6861;46.170;7.222;2023-04-19T00:16:00;96141.38;;;13.04;45.67
13581;BME280;6861;46.170;7.222;2023-04-19T00:18:29;96137.25;;;12.98;46.13
13581;BME280;6861;46.170;7.222;2023-04-19T00:20:57;96135.22;;;12.90;45.96
13581;BME280;6861;46.170;7.222;2023-04-19T00:23:27;96142.34;;;12.85;45.72
13581;BME280;6861;46.170;7.222;2023-04-19T00:25:55;96135.84;;;12.77;46.49
13581;BME280;6861;46.170;7.222;2023-04-19T00:28:24;96136.38;;;12.74;46.11
13581;BME280;6861;46.170;7.222;2023-04-19T00:30:52;96133.25;;;12.72;45.39
13581;BME280;6861;46.170;7.222;2023-04-19T00:33:20;96130.09;;;12.70;45.89
13581;BME280;6861;46.170;7.222;2023-04-19T00:35:49;96126.97;;;12.68;46.21
13581;BME280;6861;46.170;7.222;2023-04-19T00:38:17;96124.88;;;12.65;46.21
13581;BME280;6861;46.170;7.222;2023-04-19T00:40:47;96122.03;;;12.61;45.75
13581;BME280;6861;46.170;7.222;2023-04-19T00:43:16;96114.44;;;12.55;46.15
13581;BME280;6861;46.170;7.222;2023-04-19T00:45:46;96129.16;;;12.56;45.88
13581;BME280;6861;46.170;7.222;2023-04-19T00:48:15;96131.00;;;12.55;46.16
13581;BME280;6861;46.170;7.222;2023-04-19T00:50:43;96130.47;;;12.53;45.21
13581;BME280;6861;46.170;7.222;2023-04-19T00:53:12;96117.16;;;12.44;45.72
13581;BME280;6861;46.170;7.222;2023-04-19T00:55:41;96129.47;;;12.44;46.40
13581;BME280;6861;46.170;7.222;2023-04-19T00:58:11;96129.00;;;12.37;46.78
13581;BME280;6861;46.170;7.222;2023-04-19T01:00:39;96122.50;;;12.24;46.20
13581;BME280;6861;46.170;7.222;2023-04-19T01:03:08;96124.06;;;12.25;46.73
13581;BME280;6861;46.170;7.222;2023-04-19T01:05:36;96126.69;;;12.25;47.00
13581;BME280;6861;46.170;7.222;2023-04-19T01:08:05;96131.44;;;12.23;46.70
13581;BME280;6861;46.170;7.222;2023-04-19T01:10:34;96127.78;;;12.19;47.78
13581;BME280;6861;46.170;7.222;2023-04-19T01:13:02;96125.69;;;12.16;47.78
13581;BME280;6861;46.170;7.222;2023-04-19T01:15:32;96133.03;;;12.14;47.12
13581;BME280;6861;46.170;7.222;2023-04-19T01:18:00;96132.03;;;12.10;47.04
13581;BME280;6861;46.170;7.222;2023-04-19T01:20:30;96130.47;;;12.09;47.51
13581;BME280;6861;46.170;7.222;2023-04-19T01:22:59;96129.97;;;12.07;47.11
13581;BME280;6861;46.170;7.222;2023-04-19T01:25:28;96128.41;;;12.01;48.05
13581;BME280;6861;46.170;7.222;2023-04-19T01:27:56;96133.41;;;11.97;47.44
13581;BME280;6861;46.170;7.222;2023-04-19T01:30:25;96130.03;;;11.92;48.27
13581;BME280;6861;46.170;7.222;2023-04-19T01:32:53;96125.31;;;11.89;48.16
13581;BME280;6861;46.170;7.222;2023-04-19T01:35:21;96127.44;;;11.87;47.48
13581;BME280;6861;46.170;7.222;2023-04-19T01:37:49;96122.72;;;11.84;47.50
13581;BME280;6861;46.170;7.222;2023-04-19T01:40:24;96123.53;;;11.79;47.74
13581;BME280;6861;46.170;7.222;2023-04-19T01:42:52;96125.84;;;11.75;48.25
13581;BME280;6861;46.170;7.222;2023-04-19T01:45:21;96121.69;;;11.69;48.43
13581;BME280;6861;46.170;7.222;2023-04-19T01:47:49;96119.06;;;11.64;48.14
13581;BME280;6861;46.170;7.222;2023-04-19T01:50:17;96122.25;;;11.56;48.76
13581;BME280;6861;46.170;7.222;2023-04-19T01:52:46;96119.63;;;11.51;48.89
13581;BME280;6861;46.170;7.222;2023-04-19T01:55:14;96124.88;;;11.51;48.76
13581;BME280;6861;46.170;7.222;2023-04-19T01:57:44;96124.34;;;11.49;48.41
13581;BME280;6861;46.170;7.222;2023-04-19T02:00:13;96129.34;;;11.50;48.55
13581;BME280;6861;46.170;7.222;2023-04-19T02:02:41;96131.41;;;11.54;48.03
13581;BME280;6861;46.170;7.222;2023-04-19T02:05:10;96125.66;;;11.52;48.57
13581;BME280;6861;46.170;7.222;2023-04-19T02:07:38;96128.00;;;11.58;48.27
13581;BME280;6861;46.170;7.222;2023-04-19T02:10:08;96133.78;;;11.55;48.53
13581;BME280;6861;46.170;7.222;2023-04-19T02:12:37;96133.78;;;11.50;48.70
13581;BME280;6861;46.170;7.222;2023-04-19T02:15:07;96141.66;;;11.50;48.59
13581;BME280;6861;46.170;7.222;2023-04-19T02:17:36;96139.28;;;11.48;48.65
13581;BME280;6861;46.170;7.222;2023-04-19T02:20:05;96143.47;;;11.49;48.44
13581;BME280;6861;46.170;7.222;2023-04-19T02:22:35;96141.91;;;11.54;48.88
13581;BME280;6861;46.170;7.222;2023-04-19T02:25:03;96144.28;;;11.50;48.12
13581;BME280;6861;46.170;7.222;2023-04-19T02:27:32;96139.56;;;11.47;48.07
13581;BME280;6861;46.170;7.222;2023-04-19T02:30:00;96143.75;;;11.43;48.09
13581;BME280;6861;46.170;7.222;2023-04-19T02:32:30;96141.66;;;11.40;48.46
13581;BME280;6861;46.170;7.222;2023-04-19T02:34:59;96143.75;;;11.43;48.42
13581;BME280;6861;46.170;7.222;2023-04-19T02:37:27;96142.72;;;11.39;48.13
13581;BME280;6861;46.170;7.222;2023-04-19T02:39:55;96136.44;;;11.35;48.28
13581;BME280;6861;46.170;7.222;2023-04-19T02:42:23;96138.28;;;11.29;48.51
13581;BME280;6861;46.170;7.222;2023-04-19T02:44:52;96129.41;;;11.25;48.57
13581;BME280;6861;46.170;7.222;2023-04-19T02:47:20;96127.31;;;11.22;49.00
13581;BME280;6861;46.170;7.222;2023-04-19T02:49:50;96130.19;;;11.21;48.80
13581;BME280;6861;46.170;7.222;2023-04-19T02:52:18;96136.75;;;11.18;48.64
13581;BME280;6861;46.170;7.222;2023-04-19T02:54:47;96143.03;;;11.12;48.67
13581;BME280;6861;46.170;7.222;2023-04-19T02:57:15;96142.25;;;11.11;49.08
13581;BME280;6861;46.170;7.222;2023-04-19T02:59:43;96148.03;;;11.08;49.12
13581;BME280;6861;46.170;7.222;2023-04-19T03:02:11;96138.06;;;11.05;49.43
13581;BME280;6861;46.170;7.222;2023-04-19T03:04:40;96140.16;;;11.03;49.18
13581;BME280;6861;46.170;7.222;2023-04-19T03:07:10;96149.59;;;10.99;49.51
13581;BME280;6861;46.170;7.222;2023-04-19T03:09:38;96141.22;;;10.92;49.79
13581;BME280;6861;46.170;7.222;2023-04-19T03:12:07;96150.63;;;10.93;49.40
13581;BME280;6861;46.170;7.222;2023-04-19T03:14:35;96142.00;;;10.88;49.57
13581;BME280;6861;46.170;7.222;2023-04-19T03:17:03;96143.81;;;10.92;49.37
13581;BME280;6861;46.170;7.222;2023-04-19T03:19:32;96152.22;;;10.94;49.37
13581;BME280;6861;46.170;7.222;2023-04-19T03:22:00;96148.28;;;10.92;49.41
13581;BME280;6861;46.170;7.222;2023-04-19T03:24:30;96148.53;;;10.90;49.50
13581;BME280;6861;46.170;7.222;2023-04-19T03:27:01;96141.22;;;10.87;49.64
13581;BME280;6861;46.170;7.222;2023-04-19T03:29:30;96147.75;;;10.84;49.78
13581;BME280;6861;46.170;7.222;2023-04-19T03:31:58;96143.03;;;10.76;49.95
13581;BME280;6861;46.170;7.222;2023-04-19T03:34:26;96146.44;;;10.77;49.90
13581;BME280;6861;46.170;7.222;2023-04-19T03:36:54;96145.38;;;10.73;50.09
13581;BME280;6861;46.170;7.222;2023-04-19T03:39:22;96146.94;;;10.64;49.96
13581;BME280;6861;46.170;7.222;2023-04-19T03:41:52;96139.88;;;10.59;50.09
13581;BME280;6861;46.170;7.222;2023-04-19T03:44:20;96148.25;;;10.56;49.81
13581;BME280;6861;46.170;7.222;2023-04-19T03:46:49;96144.84;;;10.56;50.02
13581;BME280;6861;46.170;7.222;2023-04-19T03:49:17;96140.13;;;10.52;50.02
13581;BME280;6861;46.170;7.222;2023-04-19T03:51:45;96147.44;;;10.56;50.09
13581;BME280;6861;46.170;7.222;2023-04-19T03:54:13;96141.44;;;10.55;50.13
13581;BME280;6861;46.170;7.222;2023-04-19T03:56:42;96145.09;;;10.54;50.01
13581;BME280;6861;46.170;7.222;2023-04-19T03:59:12;96141.16;;;10.46;50.14
13581;BME280;6861;46.170;7.222;2023-04-19T04:01:40;96143.25;;;10.44;50.15
13581;BME280;6861;46.170;7.222;2023-04-19T04:04:08;96146.38;;;10.46;50.38
13581;BME280;6861;46.170;7.222;2023-04-19T04:06:37;96142.22;;;10.50;50.42
13581;BME280;6861;46.170;7.222;2023-04-19T04:09:06;96146.41;;;10.51;50.31
13581;BME280;6861;46.170;7.222;2023-04-19T04:11:34;96148.22;;;10.51;50.20
13581;BME280;6861;46.170;7.222;2023-04-19T04:14:03;96142.72;;;10.47;50.42
13581;BME280;6861;46.170;7.222;2023-04-19T04:16:33;96142.47;;;10.44;50.13
13581;BME280;6861;46.170;7.222;2023-04-19T04:19:01;96149.00;;;10.41;50.11
13581;BME280;6861;46.170;7.222;2023-04-19T04:21:29;96150.06;;;10.35;50.26
13581;BME280;6861;46.170;7.222;2023-04-19T04:23:58;96152.94;;;10.34;50.36
13581;BME280;6861;46.170;7.222;2023-04-19T04:26:27;96154.75;;;10.28;50.22
13581;BME280;6861;46.170;7.222;2023-04-19T04:28:59;96155.25;;;10.20;50.82
13581;BME280;6861;46.170;7.222;2023-04-19T04:31:28;96155.19;;;10.15;51.20
13581;BME280;6861;46.170;7.222;2023-04-19T04:33:59;96156.22;;;10.09;51.10
13581;BME280;6861;46.170;7.222;2023-04-19T04:36:27;96159.03;;;9.97;51.29
13581;BME280;6861;46.170;7.222;2023-04-19T04:38:58;96154.31;;;9.89;52.19
13581;BME280;6861;46.170;7.222;2023-04-19T04:41:27;96156.63;;;9.80;51.61
13581;BME280;6861;46.170;7.222;2023-04-19T04:43:57;96146.66;;;9.72;52.04
13581;BME280;6861;46.170;7.222;2023-04-19T04:46:38;96154.75;;;9.71;52.34
13581;BME280;6861;46.170;7.222;2023-04-19T04:49:07;96151.06;;;9.67;52.65
13581;BME280;6861;46.170;7.222;2023-04-19T04:51:36;96152.88;;;9.66;52.78
13581;BME280;6861;46.170;7.222;2023-04-19T04:54:04;96155.75;;;9.65;52.59
13581;BME280;6861;46.170;7.222;2023-04-19T04:56:32;96160.75;;;9.71;52.67
13581;BME280;6861;46.170;7.222;2023-04-19T04:59:01;96159.47;;;9.74;52.74
13581;BME280;6861;46.170;7.222;2023-04-19T05:01:30;96157.88;;;9.73;52.32
13581;BME280;6861;46.170;7.222;2023-04-19T05:03:59;96157.88;;;9.73;52.29
13581;BME280;6861;46.170;7.222;2023-04-19T05:06:29;96166.25;;;9.75;52.41
13581;BME280;6861;46.170;7.222;2023-04-19T05:08:57;96163.69;;;9.80;52.03
13581;BME280;6861;46.170;7.222;2023-04-19T05:11:26;96168.16;;;9.90;52.17
13581;BME280;6861;46.170;7.222;2023-04-19T05:13:54;96171.88;;;9.99;52.04
13581;BME280;6861;46.170;7.222;2023-04-19T05:16:22;96162.44;;;9.93;51.91
13581;BME280;6861;46.170;7.222;2023-04-19T05:18:51;96168.72;;;9.97;52.40
13581;BME280;6861;46.170;7.222;2023-04-19T05:21:20;96170.00;;;9.94;51.80
13581;BME280;6861;46.170;7.222;2023-04-19T05:23:49;96169.22;;;9.94;52.01
13581;BME280;6861;46.170;7.222;2023-04-19T05:26:19;96160.31;;;9.90;52.58
13581;BME280;6861;46.170;7.222;2023-04-19T05:28:47;96160.84;;;9.92;52.27
13581;BME280;6861;46.170;7.222;2023-04-19T05:31:15;96162.16;;;9.89;52.46
13581;BME280;6861;46.170;7.222;2023-04-19T05:33:44;96161.09;;;9.90;52.57
13581;BME280;6861;46.170;7.222;2023-04-19T05:36:12;96161.63;;;9.87;52.57
13581;BME280;6861;46.170;7.222;2023-04-19T05:38:41;96164.75;;;9.84;52.50
13581;BME280;6861;46.170;7.222;2023-04-19T05:41:10;96163.41;;;9.76;52.92
13581;BME280;6861;46.170;7.222;2023-04-19T05:43:39;96161.28;;;9.73;53.18
13581;BME280;6861;46.170;7.222;2023-04-19T05:46:07;96167.84;;;9.76;52.76
13581;BME280;6861;46.170;7.222;2023-04-19T05:48:35;96160.00;;;9.76;53.02
13581;BME280;6861;46.170;7.222;2023-04-19T05:51:04;96158.72;;;9.83;52.78
13581;BME280;6861;46.170;7.222;2023-04-19T05:53:32;96158.25;;;9.92;53.02
13581;BME280;6861;46.170;7.222;2023-04-19T05:56:01;96161.91;;;9.96;52.50
13581;BME280;6861;46.170;7.222;2023-04-19T05:58:30;96159.84;;;9.98;52.55
13581;BME280;6861;46.170;7.222;2023-04-19T06:00:59;96156.69;;;9.96;52.87
13581;BME280;6861;46.170;7.222;2023-04-19T06:03:27;96164.53;;;9.96;52.42
13581;BME280;6861;46.170;7.222;2023-04-19T06:05:58;96163.78;;;10.00;52.21
13581;BME280;6861;46.170;7.222;2023-04-19T06:08:26;96154.09;;;10.01;52.18
13581;BME280;6861;46.170;7.222;2023-04-19T06:10:54;96166.69;;;10.09;52.35
13581;BME280;6861;46.170;7.222;2023-04-19T06:13:32;96169.81;;;10.11;52.28
13581;BME280;6861;46.170;7.222;2023-04-19T06:16:00;96172.97;;;10.13;52.40
13581;BME280;6861;46.170;7.222;2023-04-19T06:18:29;96165.66;;;10.15;52.49
13581;BME280;6861;46.170;7.222;2023-04-19T06:20:57;96165.69;;;10.20;52.22
13581;BME280;6861;46.170;7.222;2023-04-19T06:23:26;96162.06;;;10.26;51.94
13581;BME280;6861;46.170;7.222;2023-04-19T06:25:54;96159.72;;;10.25;52.20
13581;BME280;6861;46.170;7.222;2023-04-19T06:28:22;96153.44;;;10.31;52.11
13581;BME280;6861;46.170;7.222;2023-04-19T06:30:52;96154.25;;;10.36;52.49
13581;BME280;6861;46.170;7.222;2023-04-19T06:33:20;96155.28;;;10.40;51.95
13581;BME280;6861;46.170;7.222;2023-04-19T06:35:48;96156.84;;;10.41;51.91
13581;BME280;6861;46.170;7.222;2023-04-19T06:38:16;96156.34;;;10.39;51.86
13581;BME280;6861;46.170;7.222;2023-04-19T06:40:44;96160.00;;;10.38;52.02
13581;BME280;6861;46.170;7.222;2023-04-19T06:43:13;96151.63;;;10.36;51.64
13581;BME280;6861;46.170;7.222;2023-04-19T06:45:41;96151.34;;;10.43;51.60
13581;BME280;6861;46.170;7.222;2023-04-19T06:48:11;96147.97;;;10.47;51.13
13581;BME280;6861;46.170;7.222;2023-04-19T06:50:39;96139.59;;;10.56;50.87
13581;BME280;6861;46.170;7.222;2023-04-19T06:53:07;96151.66;;;10.67;51.01
13581;BME280;6861;46.170;7.222;2023-04-19T06:55:35;96143.28;;;10.75;51.00
13581;BME280;6861;46.170;7.222;2023-04-19T06:58:03;96146.44;;;10.77;50.80
13581;BME280;6861;46.170;7.222;2023-04-19T07:00:33;96148.78;;;10.73;50.89
13581;BME280;6861;46.170;7.222;2023-04-19T07:03:01;96143.31;;;10.85;51.52
13581;BME280;6861;46.170;7.222;2023-04-19T07:05:31;96152.28;;;11.99;49.83
13581;BME280;6861;46.170;7.222;2023-04-19T07:08:00;96134.09;;;14.02;47.21
13581;BME280;6861;46.170;7.222;2023-04-19T07:10:28;96136.50;;;16.26;44.36
13581;BME280;6861;46.170;7.222;2023-04-19T07:12:56;96130.34;;;18.39;40.72
13581;BME280;6861;46.170;7.222;2023-04-19T07:15:25;96128.47;;;20.31;38.33
13581;BME280;6861;46.170;7.222;2023-04-19T07:17:53;96120.31;;;22.13;35.99
13581;BME280;6861;46.170;7.222;2023-04-19T07:20:21;96123.22;;;23.76;33.89
13581;BME280;6861;46.170;7.222;2023-04-19T07:22:51;96123.38;;;25.04;31.89
13581;BME280;6861;46.170;7.222;2023-04-19T07:25:19;96108.00;;;25.89;30.16
13581;BME280;6861;46.170;7.222;2023-04-19T07:27:47;96119.38;;;26.61;28.74
13581;BME280;6861;46.170;7.222;2023-04-19T07:30:18;96110.13;;;27.22;28.09
13581;BME280;6861;46.170;7.222;2023-04-19T07:32:46;96107.69;;;27.91;26.82
13581;BME280;6861;46.170;7.222;2023-04-19T07:35:17;96108.50;;;28.64;26.30
13581;BME280;6861;46.170;7.222;2023-04-19T07:37:45;96109.16;;;29.30;25.84
13581;BME280;6861;46.170;7.222;2023-04-19T07:40:15;96107.66;;;29.86;24.49
13581;BME280;6861;46.170;7.222;2023-04-19T07:42:43;96111.47;;;30.35;23.89
13581;BME280;6861;46.170;7.222;2023-04-19T07:45:12;96102.47;;;30.81;23.01
13581;BME280;6861;46.170;7.222;2023-04-19T07:47:40;96106.59;;;31.17;22.66
13581;BME280;6861;46.170;7.222;2023-04-19T07:50:09;96088.88;;;31.61;21.97
13581;BME280;6861;46.170;7.222;2023-04-19T07:52:38;96102.22;;;31.89;21.18
13581;BME280;6861;46.170;7.222;2023-04-19T07:55:07;96087.63;;;31.76;20.75
13581;BME280;6861;46.170;7.222;2023-04-19T07:57:37;96087.63;;;31.76;19.92
13581;BME280;6861;46.170;7.222;2023-04-19T08:00:07;96092.50;;;31.44;19.43
13581;BME280;6861;46.170;7.222;2023-04-19T08:02:36;96092.56;;;31.29;19.93
13581;BME280;6861;46.170;7.222;2023-04-19T08:05:05;96082.91;;;31.87;19.94
13581;BME280;6861;46.170;7.222;2023-04-19T08:07:35;96091.00;;;32.66;19.59
13581;BME280;6861;46.170;7.222;2023-04-19T08:10:04;96079.84;;;33.21;19.26
13581;BME280;6861;46.170;7.222;2023-04-19T08:12:32;96082.41;;;33.59;18.63
13581;BME280;6861;46.170;7.222;2023-04-19T08:15:12;96077.69;;;33.86;18.07
13581;BME280;6861;46.170;7.222;2023-04-19T08:18:00;96072.25;;;34.10;17.70
13581;BME280;6861;46.170;7.222;2023-04-19T08:20:30;96066.31;;;34.38;17.96
13581;BME280;6861;46.170;7.222;2023-04-19T08:22:59;96071.41;;;34.56;17.14
13581;BME280;6861;46.170;7.222;2023-04-19T08:25:40;96062.94;;;34.90;17.02
13581;BME280;6861;46.170;7.222;2023-04-19T08:28:08;96056.53;;;35.53;17.03
13581;BME280;6861;46.170;7.222;2023-04-19T08:30:39;96062.84;;;36.27;16.22
13581;BME280;6861;46.170;7.222;2023-04-19T08:33:07;96052.94;;;36.33;15.78
13581;BME280;6861;46.170;7.222;2023-04-19T08:35:37;96054.31;;;36.25;15.67
13581;BME280;6861;46.170;7.222;2023-04-19T08:38:06;96045.63;;;36.43;15.57
13581;BME280;6861;46.170;7.222;2023-04-19T08:40:39;96042.47;;;36.32;15.16
13581;BME280;6861;46.170;7.222;2023-04-19T08:43:09;96037.53;;;35.82;15.11
13581;BME280;6861;46.170;7.222;2023-04-19T08:45:39;96029.44;;;35.29;15.30
13581;BME280;6861;46.170;7.222;2023-04-19T08:48:08;96034.25;;;35.41;15.48
13581;BME280;6861;46.170;7.222;2023-04-19T08:50:40;96032.44;;;35.51;15.26
13581;BME280;6861;46.170;7.222;2023-04-19T08:53:28;96025.31;;;35.41;15.67
13581;BME280;6861;46.170;7.222;2023-04-19T08:55:57;96014.38;;;35.73;15.38
13581;BME280;6861;46.170;7.222;2023-04-19T08:58:28;96015.97;;;36.45;15.20
13581;BME280;6861;46.170;7.222;2023-04-19T09:01:20;96020.16;;;36.62;14.74
13581;BME280;6861;46.170;7.222;2023-04-19T09:04:02;96012.59;;;37.21;14.71
13581;BME280;6861;46.170;7.222;2023-04-19T09:06:51;96011.72;;;38.62;14.23
13581;BME280;6861;46.170;7.222;2023-04-19T09:09:21;96001.31;;;39.68;13.79
13581;BME280;6861;46.170;7.222;2023-04-19T09:12:14;95989.78;;;41.12;12.92
13581;BME280;6861;46.170;7.222;2023-04-19T09:14:44;95991.03;;;42.21;12.46
13581;BME280;6861;46.170;7.222;2023-04-19T09:17:28;95977.50;;;43.27;11.57
13581;BME280;6861;46.170;7.222;2023-04-19T09:19:57;95974.31;;;43.34;11.33
13581;BME280;6861;46.170;7.222;2023-04-19T09:22:26;95977.28;;;43.30;11.29
13581;BME280;6861;46.170;7.222;2023-04-19T09:24:54;95963.47;;;44.11;10.93
13581;BME280;6861;46.170;7.222;2023-04-19T09:27:27;95947.94;;;44.71;10.60
13581;BME280;6861;46.170;7.222;2023-04-19T09:29:56;95946.88;;;45.49;10.64
13581;BME280;6861;46.170;7.222;2023-04-19T09:32:26;95941.81;;;46.29;10.16
13581;BME280;6861;46.170;7.222;2023-04-19T09:34:57;95944.31;;;47.05;9.44
13581;BME280;6861;46.170;7.222;2023-04-19T09:37:26;95943.06;;;47.75;9.29
13581;BME280;6861;46.170;7.222;2023-04-19T09:39:57;95936.25;;;48.23;8.85
13581;BME280;6861;46.170;7.222;2023-04-19T09:42:43;95924.06;;;48.62;8.21
13581;BME280;6861;46.170;7.222;2023-04-19T09:45:41;95919.00;;;49.14;8.23
13581;BME280;6861;46.170;7.222;2023-04-19T09:48:10;95914.94;;;49.40;8.10
13581;BME280;6861;46.170;7.222;2023-04-19T09:50:52;95901.78;;;49.59;7.75
13581;BME280;6861;46.170;7.222;2023-04-19T09:53:30;95902.75;;;49.80;7.79
13581;BME280;6861;46.170;7.222;2023-04-19T09:56:00;95900.63;;;49.49;7.76
13581;BME280;6861;46.170;7.222;2023-04-19T09:58:31;95893.41;;;48.73;8.01
13581;BME280;6861;46.170;7.222;2023-04-19T10:01:17;95881.84;;;48.93;8.05
13581;BME280;6861;46.170;7.222;2023-04-19T10:03:48;95885.16;;;49.35;8.02
13581;BME280;6861;46.170;7.222;2023-04-19T10:06:20;95872.81;;;49.86;7.75
13581;BME280;6861;46.170;7.222;2023-04-19T10:08:53;95879.16;;;50.19;7.59
13581;BME280;6861;46.170;7.222;2023-04-19T10:11:22;95876.88;;;50.49;7.63
13581;BME280;6861;46.170;7.222;2023-04-19T10:13:56;95870.75;;;50.96;7.48
13581;BME280;6861;46.170;7.222;2023-04-19T10:16:26;95866.53;;;51.29;7.32
13581;BME280;6861;46.170;7.222;2023-04-19T10:18:57;95858.53;;;51.46;7.43
13581;BME280;6861;46.170;7.222;2023-04-19T10:21:28;95862.28;;;51.49;7.23
13581;BME280;6861;46.170;7.222;2023-04-19T10:23:58;95861.44;;;51.28;7.23
13581;BME280;6861;46.170;7.222;2023-04-19T10:26:27;95849.38;;;51.12;7.41
13581;BME280;6861;46.170;7.222;2023-04-19T10:28:56;95843.59;;;50.83;7.62
13581;BME280;6861;46.170;7.222;2023-04-19T10:31:25;95846.00;;;50.47;7.63
13581;BME280;6861;46.170;7.222;2023-04-19T10:33:54;95833.28;;;49.18;8.16
13581;BME280;6861;46.170;7.222;2023-04-19T10:36:27;95849.00;;;48.13;8.89
13581;BME280;6861;46.170;7.222;2023-04-19T10:38:56;95841.81;;;47.57;9.36
13581;BME280;6861;46.170;7.222;2023-04-19T10:44:34;95839.69;;;46.09;9.79
13581;BME280;6861;46.170;7.222;2023-04-19T10:47:04;95817.91;;;44.32;10.92
13581;BME280;6861;46.170;7.222;2023-04-19T10:49:43;95824.56;;;41.14;12.73
13581;BME280;6861;46.170;7.222;2023-04-19T10:52:27;95820.28;;;37.56;15.28
13581;BME280;6861;46.170;7.222;2023-04-19T10:54:55;95826.69;;;34.92;17.11
13581;BME280;6861;46.170;7.222;2023-04-19T10:57:24;95824.50;;;33.00;18.49
13581;BME280;6861;46.170;7.222;2023-04-19T11:00:17;95820.00;;;31.17;20.08
13581;BME280;6861;46.170;7.222;2023-04-19T11:02:46;95811.38;;;29.63;21.49
13581;BME280;6861;46.170;7.222;2023-04-19T11:05:15;95816.16;;;28.35;22.83
13581;BME280;6861;46.170;7.222;2023-04-19T11:07:47;95813.16;;;27.46;23.85
13581;BME280;6861;46.170;7.222;2023-04-19T11:10:27;95795.81;;;26.71;24.71
13581;BME280;6861;46.170;7.222;2023-04-19T11:12:55;95797.34;;;26.28;25.46
13581;BME280;6861;46.170;7.222;2023-04-19T11:15:24;95788.84;;;25.78;26.00
13581;BME280;6861;46.170;7.222;2023-04-19T11:17:53;95792.03;;;25.27;26.72
13581;BME280;6861;46.170;7.222;2023-04-19T11:20:37;95778.41;;;24.83;27.42
13581;BME280;6861;46.170;7.222;2023-04-19T11:23:16;95779.09;;;24.54;28.12
13581;BME280;6861;46.170;7.222;2023-04-19T11:25:44;95766.84;;;24.26;28.21
13581;BME280;6861;46.170;7.222;2023-04-19T11:28:14;95770.31;;;24.07;28.49
13581;BME280;6861;46.170;7.222;2023-04-19T11:30:44;95768.38;;;23.85;29.18
13581;BME280;6861;46.170;7.222;2023-04-19T11:33:12;95761.25;;;23.70;29.31
13581;BME280;6861;46.170;7.222;2023-04-19T11:35:42;95759.25;;;23.47;29.87
13581;BME280;6861;46.170;7.222;2023-04-19T11:38:12;95753.03;;;23.40;30.22
13581;BME280;6861;46.170;7.222;2023-04-19T11:40:42;95760.97;;;23.36;29.87
13581;BME280;6861;46.170;7.222;2023-04-19T11:43:10;95745.38;;;23.38;29.97
13581;BME280;6861;46.170;7.222;2023-04-19T11:45:38;95739.59;;;23.36;30.12
13581;BME280;6861;46.170;7.222;2023-04-19T11:48:07;95738.34;;;23.30;30.60
13581;BME280;6861;46.170;7.222;2023-04-19T11:50:41;95733.00;;;23.30;30.29
13581;BME280;6861;46.170;7.222;2023-04-19T11:53:11;95736.78;;;23.29;30.09
13581;BME280;6861;46.170;7.222;2023-04-19T11:55:47;95729.84;;;23.25;30.74
13581;BME280;6861;46.170;7.222;2023-04-19T11:58:27;95723.31;;;23.22;30.79
13581;BME280;6861;46.170;7.222;2023-04-19T12:01:02;95723.31;;;23.22;30.56
13581;BME280;6861;46.170;7.222;2023-04-19T12:03:32;95721.75;;;23.21;30.38
13581;BME280;6861;46.170;7.222;2023-04-19T12:06:02;95699.97;;;23.19;30.55
13581;BME280;6861;46.170;7.222;2023-04-19T12:08:35;95712.63;;;23.22;30.45
13581;BME280;6861;46.170;7.222;2023-04-19T12:11:05;95695.41;;;23.19;30.73
13581;BME280;6861;46.170;7.222;2023-04-19T12:13:34;95687.25;;;23.12;30.35
13581;BME280;6861;46.170;7.222;2023-04-19T12:16:03;95691.69;;;23.05;30.16
13581;BME280;6861;46.170;7.222;2023-04-19T12:18:42;95683.59;;;23.01;30.34
13581;BME280;6861;46.170;7.222;2023-04-19T12:21:23;95683.13;;;22.96;30.77
13581;BME280;6861;46.170;7.222;2023-04-19T12:23:53;95679.88;;;22.86;30.94
13581;BME280;6861;46.170;7.222;2023-04-19T12:26:23;95681.06;;;22.89;30.54
13581;BME280;6861;46.170;7.222;2023-04-19T12:28:52;95683.53;;;22.98;30.70
13581;BME280;6861;46.170;7.222;2023-04-19T12:31:21;95670.81;;;23.10;30.43
13581;BME280;6861;46.170;7.222;2023-04-19T12:33:49;95675.66;;;23.24;30.58
13581;BME280;6861;46.170;7.222;2023-04-19T12:36:18;95674.25;;;23.30;30.36
13581;BME280;6861;46.170;7.222;2023-04-19T12:38:47;95666.66;;;23.32;30.06
13581;BME280;6861;46.170;7.222;2023-04-19T12:41:15;95670.03;;;23.29;29.93
13581;BME280;6861;46.170;7.222;2023-04-19T12:43:45;95669.88;;;23.41;30.34
13581;BME280;6861;46.170;7.222;2023-04-19T12:46:13;95657.06;;;23.50;30.22
13581;BME280;6861;46.170;7.222;2023-04-19T12:48:41;95656.38;;;23.53;30.51
13581;BME280;6861;46.170;7.222;2023-04-19T12:51:10;95659.47;;;23.56;30.34
13581;BME280;6861;46.170;7.222;2023-04-19T12:53:40;95645.81;;;23.61;30.32
13581;BME280;6861;46.170;7.222;2023-04-19T12:56:09;95648.25;;;23.69;30.31
13581;BME280;6861;46.170;7.222;2023-04-19T12:58:38;95643.09;;;23.80;30.10
13581;BME280;6861;46.170;7.222;2023-04-19T13:01:07;95637.09;;;23.86;30.04
13581;BME280;6861;46.170;7.222;2023-04-19T13:03:36;95624.50;;;23.87;29.73
13581;BME280;6861;46.170;7.222;2023-04-19T13:06:05;95634.06;;;23.88;30.21
13581;BME280;6861;46.170;7.222;2023-04-19T13:08:33;95625.69;;;23.90;29.86
13581;BME280;6861;46.170;7.222;2023-04-19T13:11:12;95615.75;;;23.90;30.26
13581;BME280;6861;46.170;7.222;2023-04-19T13:13:41;95613.63;;;23.99;29.86
13581;BME280;6861;46.170;7.222;2023-04-19T13:16:10;95610.53;;;23.97;29.66
13581;BME280;6861;46.170;7.222;2023-04-19T13:18:39;95609.72;;;23.93;30.09
13581;BME280;6861;46.170;7.222;2023-04-19T13:21:07;95602.50;;;23.97;29.77
13581;BME280;6861;46.170;7.222;2023-04-19T13:23:35;95598.28;;;23.96;29.76
13581;BME280;6861;46.170;7.222;2023-04-19T13:26:04;95589.88;;;23.94;29.74
13581;BME280;6861;46.170;7.222;2023-04-19T13:28:33;95582.16;;;23.89;29.70
13581;BME280;6861;46.170;7.222;2023-04-19T13:31:03;95582.03;;;23.82;29.83